sensor_id;sensor_type;location;lat;lon;timestamp;P1;durP1;ratioP1;P2;durP2;ratioP2
5454;SDS011;2750;49.050;9.250;2022-10-17T00:01:15;6.57;;;3.53;;
5454;SDS011;2750;49.050;9.250;2022-10-17T00:06:18;7.17;;;3.47;;
5454;SDS011;2750;49.050;9.250;2022-10-17T00:11:20;6.57;;;3.93;;
5454;SDS011;2750;49.050;9.250;2022-10-17T00:16:23;6.20;;;3.20;;
5454;SDS011;2750;49.050;9.250;2022-10-17T00:21:27;4.87;;;3.57;;
5454;SDS011;2750;49.050;9.250;2022-10-17T00:26:28;8.13;;;3.57;;
5454;SDS011;2750;49.050;9.250;2022-10-17T00:31:30;7.63;;;3.20;;
5454;SDS011;2750;49.050;9.250;2022-10-17T00:36:33;5.57;;;3.00;;
5454;SDS011;2750;49.050;9.250;2022-10-17T00:41:34;4.90;;;2.87;;
5454;SDS011;2750;49.050;9.250;2022-10-17T00:46:37;12.67;;;3.53;;
5454;SDS011;2750;49.050;9.250;2022-10-17T00:51:41;6.80;;;3.50;;
5454;SDS011;2750;49.050;9.250;2022-10-17T00:56:45;5.43;;;4.10;;
5454;SDS011;2750;49.050;9.250;2022-10-17T01:01:50;7.07;;;3.50;;
5454;SDS011;2750;49.050;9.250;2022-10-17T01:06:57;6.40;;;3.20;;
5454;SDS011;2750;49.050;9.250;2022-10-17T01:12:00;6.40;;;3.50;;
5454;SDS011;2750;49.050;9.250;2022-10-17T01:17:09;5.60;;;3.47;;
5454;SDS011;2750;49.050;9.250;2022-10-17T01:22:18;4.57;;;2.93;;
5454;SDS011;2750;49.050;9.250;2022-10-17T01:32:59;3.40;;;2.90;;
5454;SDS011;2750;49.050;9.250;2022-10-17T01:38:09;7.97;;;3.10;;
5454;SDS011;2750;49.050;9.250;2022-10-17T01:43:14;5.67;;;3.70;;
5454;SDS011;2750;49.050;9.250;2022-10-17T01:48:23;4.77;;;3.20;;
5454;SDS011;2750;49.050;9.250;2022-10-17T01:53:29;4.97;;;3.27;;
5454;SDS011;2750;49.050;9.250;2022-10-17T01:58:35;5.23;;;3.20;;
5454;SDS011;2750;49.050;9.250;2022-10-17T02:03:42;3.77;;;2.57;;
5454;SDS011;2750;49.050;9.250;2022-10-17T02:08:46;6.13;;;2.93;;
5454;SDS011;2750;49.050;9.250;2022-10-17T02:14:09;5.07;;;3.10;;
5454;SDS011;2750;49.050;9.250;2022-10-17T02:19:40;7.67;;;2.93;;
5454;SDS011;2750;49.050;9.250;2022-10-17T02:24:51;4.40;;;2.70;;
5454;SDS011;2750;49.050;9.250;2022-10-17T02:30:00;6.03;;;3.40;;
5454;SDS011;2750;49.050;9.250;2022-10-17T02:35:08;5.20;;;3.03;;
5454;SDS011;2750;49.050;9.250;2022-10-17T02:40:13;8.87;;;3.00;;
5454;SDS011;2750;49.050;9.250;2022-10-17T02:45:18;9.37;;;3.43;;
5454;SDS011;2750;49.050;9.250;2022-10-17T02:50:24;4.87;;;3.17;;
5454;SDS011;2750;49.050;9.250;2022-10-17T02:55:31;7.90;;;3.07;;
5454;SDS011;2750;49.050;9.250;2022-10-17T03:00:38;7.20;;;3.50;;
5454;SDS011;2750;49.050;9.250;2022-10-17T03:05:43;3.13;;;2.83;;
5454;SDS011;2750;49.050;9.250;2022-10-17T03:10:44;4.57;;;3.17;;
5454;SDS011;2750;49.050;9.250;2022-10-17T03:15:46;8.03;;;3.93;;
5454;SDS011;2750;49.050;9.250;2022-10-17T03:20:49;5.07;;;4.03;;
5454;SDS011;2750;49.050;9.250;2022-10-17T03:25:50;10.07;;;4.00;;
5454;SDS011;2750;49.050;9.250;2022-10-17T03:30:52;3.93;;;3.57;;
5454;SDS011;2750;49.050;9.250;2022-10-17T03:35:55;7.00;;;4.40;;
5454;SDS011;2750;49.050;9.250;2022-10-17T03:40:56;6.07;;;3.93;;
5454;SDS011;2750;49.050;9.250;2022-10-17T03:45:58;6.13;;;4.03;;
5454;SDS011;2750;49.050;9.250;2022-10-17T03:51:02;6.13;;;4.03;;
5454;SDS011;2750;49.050;9.250;2022-10-17T03:56:09;10.20;;;5.00;;
5454;SDS011;2750;49.050;9.250;2022-10-17T04:01:13;8.53;;;4.37;;
5454;SDS011;2750;49.050;9.250;2022-10-17T04:06:17;7.80;;;4.23;;
5454;SDS011;2750;49.050;9.250;2022-10-17T04:11:19;9.33;;;4.60;;
5454;SDS011;2750;49.050;9.250;2022-10-17T04:16:21;8.50;;;4.10;;
5454;SDS011;2750;49.050;9.250;2022-10-17T04:21:25;6.53;;;4.63;;
5454;SDS011;2750;49.050;9.250;2022-10-17T04:26:28;11.70;;;5.43;;
5454;SDS011;2750;49.050;9.250;2022-10-17T04:31:30;9.23;;;5.30;;
5454;SDS011;2750;49.050;9.250;2022-10-17T04:36:33;11.13;;;5.40;;
5454;SDS011;2750;49.050;9.250;2022-10-17T04:41:34;10.00;;;6.70;;
5454;SDS011;2750;49.050;9.250;2022-10-17T04:46:36;10.30;;;7.60;;
5454;SDS011;2750;49.050;9.250;2022-10-17T04:51:39;8.90;;;8.00;;
5454;SDS011;2750;49.050;9.250;2022-10-17T04:56:40;12.13;;;7.00;;
5454;SDS011;2750;49.050;9.250;2022-10-17T05:01:42;10.43;;;6.80;;
5454;SDS011;2750;49.050;9.250;2022-10-17T05:06:44;5.90;;;5.30;;
5454;SDS011;2750;49.050;9.250;2022-10-17T05:11:46;12.57;;;6.30;;
5454;SDS011;2750;49.050;9.250;2022-10-17T05:16:48;12.50;;;5.73;;
5454;SDS011;2750;49.050;9.250;2022-10-17T05:21:50;8.57;;;4.90;;
5454;SDS011;2750;49.050;9.250;2022-10-17T05:26:52;8.83;;;6.00;;
5454;SDS011;2750;49.050;9.250;2022-10-17T05:31:54;5.97;;;5.40;;
5454;SDS011;2750;49.050;9.250;2022-10-17T05:36:57;10.33;;;6.30;;
5454;SDS011;2750;49.050;9.250;2022-10-17T05:41:59;7.43;;;5.83;;
5454;SDS011;2750;49.050;9.250;2022-10-17T05:47:00;16.27;;;11.67;;
5454;SDS011;2750;49.050;9.250;2022-10-17T05:52:03;14.30;;;6.17;;
5454;SDS011;2750;49.050;9.250;2022-10-17T05:57:05;7.47;;;6.50;;
5454;SDS011;2750;49.050;9.250;2022-10-17T06:02:07;8.33;;;6.50;;
5454;SDS011;2750;49.050;9.250;2022-10-17T06:07:11;14.37;;;7.10;;
5454;SDS011;2750;49.050;9.250;2022-10-17T06:12:13;7.10;;;6.07;;
5454;SDS011;2750;49.050;9.250;2022-10-17T06:17:14;15.50;;;8.23;;
5454;SDS011;2750;49.050;9.250;2022-10-17T06:22:17;30.30;;;19.70;;
5454;SDS011;2750;49.050;9.250;2022-10-17T06:27:19;9.70;;;5.60;;
5454;SDS011;2750;49.050;9.250;2022-10-17T06:32:21;11.13;;;6.67;;
5454;SDS011;2750;49.050;9.250;2022-10-17T06:37:24;7.50;;;5.23;;
5454;SDS011;2750;49.050;9.250;2022-10-17T06:42:25;13.67;;;5.77;;
5454;SDS011;2750;49.050;9.250;2022-10-17T06:47:27;6.00;;;5.37;;
5454;SDS011;2750;49.050;9.250;2022-10-17T06:52:30;7.93;;;4.93;;
5454;SDS011;2750;49.050;9.250;2022-10-17T06:57:31;6.87;;;5.27;;
5454;SDS011;2750;49.050;9.250;2022-10-17T07:02:32;6.83;;;6.07;;
5454;SDS011;2750;49.050;9.250;2022-10-17T07:07:35;9.30;;;5.53;;
5454;SDS011;2750;49.050;9.250;2022-10-17T07:12:37;7.10;;;4.77;;
5454;SDS011;2750;49.050;9.250;2022-10-17T07:17:38;9.23;;;4.23;;
5454;SDS011;2750;49.050;9.250;2022-10-17T07:22:41;8.17;;;4.77;;
5454;SDS011;2750;49.050;9.250;2022-10-17T07:27:43;7.67;;;4.63;;
5454;SDS011;2750;49.050;9.250;2022-10-17T07:32:44;6.70;;;4.00;;
5454;SDS011;2750;49.050;9.250;2022-10-17T07:37:47;9.90;;;4.10;;
5454;SDS011;2750;49.050;9.250;2022-10-17T07:42:49;7.70;;;3.87;;
5454;SDS011;2750;49.050;9.250;2022-10-17T07:47:50;10.07;;;3.53;;
5454;SDS011;2750;49.050;9.250;2022-10-17T07:52:57;7.27;;;3.60;;
5454;SDS011;2750;49.050;9.250;2022-10-17T07:57:58;8.93;;;3.60;;
5454;SDS011;2750;49.050;9.250;2022-10-17T08:03:00;5.40;;;3.43;;
5454;SDS011;2750;49.050;9.250;2022-10-17T08:08:03;6.90;;;3.37;;
5454;SDS011;2750;49.050;9.250;2022-10-17T08:13:05;4.53;;;3.03;;
5454;SDS011;2750;49.050;9.250;2022-10-17T08:18:06;8.13;;;3.30;;
5454;SDS011;2750;49.050;9.250;2022-10-17T08:23:09;7.43;;;3.07;;
5454;SDS011;2750;49.050;9.250;2022-10-17T08:28:10;4.77;;;3.20;;
5454;SDS011;2750;49.050;9.250;2022-10-17T08:33:12;4.63;;;2.60;;
5454;SDS011;2750;49.050;9.250;2022-10-17T08:38:15;6.20;;;2.67;;
5454;SDS011;2750;49.050;9.250;2022-10-17T08:43:20;2.90;;;2.30;;
5454;SDS011;2750;49.050;9.250;2022-10-17T08:48:28;8.77;;;2.53;;
5454;SDS011;2750;49.050;9.250;2022-10-17T08:53:35;4.20;;;2.90;;
5454;SDS011;2750;49.050;9.250;2022-10-17T08:58:39;3.97;;;3.03;;
5454;SDS011;2750;49.050;9.250;2022-10-17T09:03:44;6.13;;;2.73;;
5454;SDS011;2750;49.050;9.250;2022-10-17T09:09:12;4.00;;;2.60;;
5454;SDS011;2750;49.050;9.250;2022-10-17T09:14:29;4.68;;;2.33;;
5454;SDS011;2750;49.050;9.250;2022-10-17T09:19:42;6.30;;;2.58;;
5454;SDS011;2750;49.050;9.250;2022-10-17T09:24:53;4.82;;;2.80;;
5454;SDS011;2750;49.050;9.250;2022-10-17T09:30:13;4.70;;;3.00;;
5454;SDS011;2750;49.050;9.250;2022-10-17T09:35:31;5.47;;;2.65;;
5454;SDS011;2750;49.050;9.250;2022-10-17T09:40:35;4.90;;;3.05;;
5454;SDS011;2750;49.050;9.250;2022-10-17T09:45:38;2.80;;;2.42;;
5454;SDS011;2750;49.050;9.250;2022-10-17T09:50:46;5.95;;;2.45;;
5454;SDS011;2750;49.050;9.250;2022-10-17T09:55:50;6.35;;;2.88;;
5454;SDS011;2750;49.050;9.250;2022-10-17T10:00:57;5.88;;;2.28;;
5454;SDS011;2750;49.050;9.250;2022-10-17T10:06:16;4.22;;;2.13;;
5454;SDS011;2750;49.050;9.250;2022-10-17T10:11:22;3.97;;;2.20;;
5454;SDS011;2750;49.050;9.250;2022-10-17T10:16:29;4.90;;;2.55;;
5454;SDS011;2750;49.050;9.250;2022-10-17T10:21:32;6.45;;;2.65;;
5454;SDS011;2750;49.050;9.250;2022-10-17T10:26:37;5.15;;;2.53;;
5454;SDS011;2750;49.050;9.250;2022-10-17T10:31:40;5.38;;;2.55;;
5454;SDS011;2750;49.050;9.250;2022-10-17T10:36:46;3.28;;;2.42;;
5454;SDS011;2750;49.050;9.250;2022-10-17T10:41:55;3.80;;;2.45;;
5454;SDS011;2750;49.050;9.250;2022-10-17T10:52:28;3.53;;;2.50;;
5454;SDS011;2750;49.050;9.250;2022-10-17T10:57:34;3.17;;;2.50;;
5454;SDS011;2750;49.050;9.250;2022-10-17T11:02:39;4.93;;;2.28;;
5454;SDS011;2750;49.050;9.250;2022-10-17T11:07:52;3.45;;;2.20;;
5454;SDS011;2750;49.050;9.250;2022-10-17T11:13:02;4.68;;;2.60;;
5454;SDS011;2750;49.050;9.250;2022-10-17T11:18:07;4.55;;;2.70;;
5454;SDS011;2750;49.050;9.250;2022-10-17T11:23:15;6.35;;;2.60;;
5454;SDS011;2750;49.050;9.250;2022-10-17T11:28:22;4.93;;;2.70;;
5454;SDS011;2750;49.050;9.250;2022-10-17T11:33:26;4.30;;;2.53;;
5454;SDS011;2750;49.050;9.250;2022-10-17T11:38:35;4.20;;;2.38;;
5454;SDS011;2750;49.050;9.250;2022-10-17T11:43:45;5.40;;;2.70;;
5454;SDS011;2750;49.050;9.250;2022-10-17T11:48:56;3.05;;;2.50;;
5454;SDS011;2750;49.050;9.250;2022-10-17T11:54:09;5.78;;;2.60;;
5454;SDS011;2750;49.050;9.250;2022-10-17T11:59:24;4.40;;;2.58;;
5454;SDS011;2750;49.050;9.250;2022-10-17T12:04:44;3.80;;;2.50;;
5454;SDS011;2750;49.050;9.250;2022-10-17T12:09:55;5.72;;;2.50;;
5454;SDS011;2750;49.050;9.250;2022-10-17T12:20:34;5.57;;;2.88;;
5454;SDS011;2750;49.050;9.250;2022-10-17T12:25:37;3.85;;;2.88;;
5454;SDS011;2750;49.050;9.250;2022-10-17T12:30:51;5.03;;;2.85;;
5454;SDS011;2750;49.050;9.250;2022-10-17T12:46:58;9.60;;;3.33;;
5454;SDS011;2750;49.050;9.250;2022-10-17T12:52:55;5.47;;;3.35;;
5454;SDS011;2750;49.050;9.250;2022-10-17T12:58:05;3.63;;;3.20;;
5454;SDS011;2750;49.050;9.250;2022-10-17T13:03:16;6.72;;;3.25;;
5454;SDS011;2750;49.050;9.250;2022-10-17T13:08:28;3.55;;;2.88;;
5454;SDS011;2750;49.050;9.250;2022-10-17T13:13:35;3.88;;;3.15;;
5454;SDS011;2750;49.050;9.250;2022-10-17T13:18:43;2.95;;;2.65;;
5454;SDS011;2750;49.050;9.250;2022-10-17T13:23:53;4.75;;;2.67;;
5454;SDS011;2750;49.050;9.250;2022-10-17T13:29:02;5.53;;;2.70;;
5454;SDS011;2750;49.050;9.250;2022-10-17T13:34:12;5.43;;;2.97;;
5454;SDS011;2750;49.050;9.250;2022-10-17T13:39:17;4.18;;;2.40;;
5454;SDS011;2750;49.050;9.250;2022-10-17T13:44:21;6.68;;;2.47;;
5454;SDS011;2750;49.050;9.250;2022-10-17T13:49:28;2.90;;;2.45;;
5454;SDS011;2750;49.050;9.250;2022-10-17T13:54:34;5.18;;;3.35;;
5454;SDS011;2750;49.050;9.250;2022-10-17T13:59:39;4.85;;;2.53;;
5454;SDS011;2750;49.050;9.250;2022-10-17T14:04:44;2.60;;;2.38;;
5454;SDS011;2750;49.050;9.250;2022-10-17T14:09:46;5.18;;;2.75;;
5454;SDS011;2750;49.050;9.250;2022-10-17T14:14:48;4.53;;;2.30;;
5454;SDS011;2750;49.050;9.250;2022-10-17T14:19:54;5.30;;;2.85;;
5454;SDS011;2750;49.050;9.250;2022-10-17T14:24:57;3.75;;;2.55;;
5454;SDS011;2750;49.050;9.250;2022-10-17T14:29:59;3.80;;;2.10;;
5454;SDS011;2750;49.050;9.250;2022-10-17T14:35:04;6.82;;;2.83;;
5454;SDS011;2750;49.050;9.250;2022-10-17T14:40:07;6.45;;;2.60;;
5454;SDS011;2750;49.050;9.250;2022-10-17T14:45:18;4.18;;;2.58;;
5454;SDS011;2750;49.050;9.250;2022-10-17T14:50:28;5.88;;;2.90;;
5454;SDS011;2750;49.050;9.250;2022-10-17T14:55:31;6.43;;;2.88;;
5454;SDS011;2750;49.050;9.250;2022-10-17T15:00:34;4.53;;;2.97;;
5454;SDS011;2750;49.050;9.250;2022-10-17T15:05:37;4.70;;;2.58;;
5454;SDS011;2750;49.050;9.250;2022-10-17T15:10:39;8.15;;;3.30;;
5454;SDS011;2750;49.050;9.250;2022-10-17T15:15:41;4.38;;;3.10;;
5454;SDS011;2750;49.050;9.250;2022-10-17T15:20:45;5.32;;;3.22;;
5454;SDS011;2750;49.050;9.250;2022-10-17T15:25:46;7.78;;;3.55;;
5454;SDS011;2750;49.050;9.250;2022-10-17T15:30:48;9.20;;;3.53;;
5454;SDS011;2750;49.050;9.250;2022-10-17T15:35:51;4.72;;;2.70;;
5454;SDS011;2750;49.050;9.250;2022-10-17T15:40:52;4.57;;;2.75;;
5454;SDS011;2750;49.050;9.250;2022-10-17T15:45:54;7.45;;;3.20;;
5454;SDS011;2750;49.050;9.250;2022-10-17T15:50:57;6.90;;;2.92;;
5454;SDS011;2750;49.050;9.250;2022-10-17T15:55:59;11.48;;;3.50;;
5454;SDS011;2750;49.050;9.250;2022-10-17T16:01:00;7.55;;;3.25;;
5454;SDS011;2750;49.050;9.250;2022-10-17T16:06:04;10.30;;;4.15;;
5454;SDS011;2750;49.050;9.250;2022-10-17T16:11:08;6.57;;;3.58;;
5454;SDS011;2750;49.050;9.250;2022-10-17T16:16:14;6.43;;;3.85;;
5454;SDS011;2750;49.050;9.250;2022-10-17T16:21:17;8.77;;;3.60;;
5454;SDS011;2750;49.050;9.250;2022-10-17T16:26:20;8.80;;;3.85;;
5454;SDS011;2750;49.050;9.250;2022-10-17T16:31:22;6.80;;;4.10;;
5454;SDS011;2750;49.050;9.250;2022-10-17T16:36:28;6.77;;;3.90;;
5454;SDS011;2750;49.050;9.250;2022-10-17T16:41:31;7.90;;;3.43;;
5454;SDS011;2750;49.050;9.250;2022-10-17T16:46:34;7.30;;;3.93;;
5454;SDS011;2750;49.050;9.250;2022-10-17T16:51:38;8.43;;;3.53;;
5454;SDS011;2750;49.050;9.250;2022-10-17T16:56:40;8.27;;;4.43;;
5454;SDS011;2750;49.050;9.250;2022-10-17T17:01:42;11.10;;;4.27;;
5454;SDS011;2750;49.050;9.250;2022-10-17T17:06:44;6.73;;;3.90;;
5454;SDS011;2750;49.050;9.250;2022-10-17T17:11:46;17.70;;;5.63;;
5454;SDS011;2750;49.050;9.250;2022-10-17T17:16:47;12.57;;;5.30;;
5454;SDS011;2750;49.050;9.250;2022-10-17T17:21:50;13.17;;;5.90;;
5454;SDS011;2750;49.050;9.250;2022-10-17T17:26:52;7.40;;;4.90;;
5454;SDS011;2750;49.050;9.250;2022-10-17T17:31:55;13.37;;;5.87;;
5454;SDS011;2750;49.050;9.250;2022-10-17T17:36:58;10.10;;;5.13;;
5454;SDS011;2750;49.050;9.250;2022-10-17T17:42:00;10.30;;;5.30;;
5454;SDS011;2750;49.050;9.250;2022-10-17T17:47:01;12.17;;;6.57;;
5454;SDS011;2750;49.050;9.250;2022-10-17T17:52:04;6.90;;;4.80;;
5454;SDS011;2750;49.050;9.250;2022-10-17T17:57:06;10.03;;;6.57;;
5454;SDS011;2750;49.050;9.250;2022-10-17T18:02:08;12.63;;;6.43;;
5454;SDS011;2750;49.050;9.250;2022-10-17T18:07:11;15.00;;;6.77;;
5454;SDS011;2750;49.050;9.250;2022-10-17T18:12:13;11.47;;;6.10;;
5454;SDS011;2750;49.050;9.250;2022-10-17T18:17:15;15.77;;;8.37;;
5454;SDS011;2750;49.050;9.250;2022-10-17T18:22:17;12.23;;;6.17;;
5454;SDS011;2750;49.050;9.250;2022-10-17T18:27:19;8.00;;;6.43;;
5454;SDS011;2750;49.050;9.250;2022-10-17T18:32:21;12.23;;;6.00;;
5454;SDS011;2750;49.050;9.250;2022-10-17T18:37:23;15.77;;;6.73;;
5454;SDS011;2750;49.050;9.250;2022-10-17T18:42:25;10.67;;;6.07;;
5454;SDS011;2750;49.050;9.250;2022-10-17T18:47:27;15.67;;;7.40;;
5454;SDS011;2750;49.050;9.250;2022-10-17T18:52:30;13.13;;;6.90;;
5454;SDS011;2750;49.050;9.250;2022-10-17T18:57:32;10.73;;;6.73;;
5454;SDS011;2750;49.050;9.250;2022-10-17T19:02:34;13.47;;;7.60;;
5454;SDS011;2750;49.050;9.250;2022-10-17T19:07:37;11.13;;;6.53;;
5454;SDS011;2750;49.050;9.250;2022-10-17T19:12:39;16.47;;;6.43;;
5454;SDS011;2750;49.050;9.250;2022-10-17T19:17:40;12.27;;;5.70;;
5454;SDS011;2750;49.050;9.250;2022-10-17T19:22:43;15.40;;;5.83;;
5454;SDS011;2750;49.050;9.250;2022-10-17T19:27:45;21.53;;;7.20;;
5454;SDS011;2750;49.050;9.250;2022-10-17T19:32:47;15.63;;;6.63;;
5454;SDS011;2750;49.050;9.250;2022-10-17T19:37:50;12.43;;;6.93;;
5454;SDS011;2750;49.050;9.250;2022-10-17T19:42:51;11.43;;;7.30;;
5454;SDS011;2750;49.050;9.250;2022-10-17T19:47:54;12.87;;;8.63;;
5454;SDS011;2750;49.050;9.250;2022-10-17T19:52:56;15.20;;;8.57;;
5454;SDS011;2750;49.050;9.250;2022-10-17T19:57:58;14.90;;;8.77;;
5454;SDS011;2750;49.050;9.250;2022-10-17T20:03:01;15.73;;;9.47;;
5454;SDS011;2750;49.050;9.250;2022-10-17T20:08:04;15.87;;;8.40;;
5454;SDS011;2750;49.050;9.250;2022-10-17T20:13:06;12.27;;;8.03;;
5454;SDS011;2750;49.050;9.250;2022-10-17T20:18:08;14.50;;;8.80;;
5454;SDS011;2750;49.050;9.250;2022-10-17T20:23:11;14.83;;;8.93;;
5454;SDS011;2750;49.050;9.250;2022-10-17T20:28:13;14.17;;;9.33;;
5454;SDS011;2750;49.050;9.250;2022-10-17T20:33:15;18.37;;;10.37;;
5454;SDS011;2750;49.050;9.250;2022-10-17T20:38:18;16.43;;;10.20;;
5454;SDS011;2750;49.050;9.250;2022-10-17T20:43:20;15.17;;;8.83;;
5454;SDS011;2750;49.050;9.250;2022-10-17T20:48:21;12.97;;;8.27;;
5454;SDS011;2750;49.050;9.250;2022-10-17T20:53:24;17.27;;;11.13;;
5454;SDS011;2750;49.050;9.250;2022-10-17T20:58:26;18.00;;;13.00;;
5454;SDS011;2750;49.050;9.250;2022-10-17T21:03:27;15.57;;;11.03;;
5454;SDS011;2750;49.050;9.250;2022-10-17T21:08:30;17.37;;;10.03;;
5454;SDS011;2750;49.050;9.250;2022-10-17T21:13:32;21.07;;;13.33;;
5454;SDS011;2750;49.050;9.250;2022-10-17T21:18:33;17.73;;;11.53;;
5454;SDS011;2750;49.050;9.250;2022-10-17T21:23:37;13.97;;;9.57;;
5454;SDS011;2750;49.050;9.250;2022-10-17T21:28:39;14.43;;;10.70;;
5454;SDS011;2750;49.050;9.250;2022-10-17T21:33:42;17.37;;;10.83;;
5454;SDS011;2750;49.050;9.250;2022-10-17T21:38:47;13.80;;;9.73;;
5454;SDS011;2750;49.050;9.250;2022-10-17T21:43:51;16.87;;;10.07;;
5454;SDS011;2750;49.050;9.250;2022-10-17T21:48:53;12.17;;;10.30;;
5454;SDS011;2750;49.050;9.250;2022-10-17T21:53:56;15.10;;;9.97;;
5454;SDS011;2750;49.050;9.250;2022-10-17T21:58:58;12.63;;;10.13;;
5454;SDS011;2750;49.050;9.250;2022-10-17T22:04:01;12.70;;;9.40;;
5454;SDS011;2750;49.050;9.250;2022-10-17T22:09:06;15.63;;;9.37;;
5454;SDS011;2750;49.050;9.250;2022-10-17T22:14:11;17.53;;;10.43;;
5454;SDS011;2750;49.050;9.250;2022-10-17T22:19:14;16.20;;;9.63;;
5454;SDS011;2750;49.050;9.250;2022-10-17T22:24:19;14.30;;;9.93;;
5454;SDS011;2750;49.050;9.250;2022-10-17T22:29:21;12.93;;;9.10;;
5454;SDS011;2750;49.050;9.250;2022-10-17T22:34:23;14.07;;;9.23;;
5454;SDS011;2750;49.050;9.250;2022-10-17T22:39:26;12.47;;;9.57;;
5454;SDS011;2750;49.050;9.250;2022-10-17T22:44:27;18.07;;;9.67;;
5454;SDS011;2750;49.050;9.250;2022-10-17T22:49:29;19.93;;;9.43;;
5454;SDS011;2750;49.050;9.250;2022-10-17T22:54:33;17.17;;;9.83;;
5454;SDS011;2750;49.050;9.250;2022-10-17T22:59:35;16.33;;;10.03;;
5454;SDS011;2750;49.050;9.250;2022-10-17T23:04:36;14.80;;;9.93;;
5454;SDS011;2750;49.050;9.250;2022-10-17T23:09:39;15.17;;;10.03;;
5454;SDS011;2750;49.050;9.250;2022-10-17T23:14:41;15.87;;;9.97;;
5454;SDS011;2750;49.050;9.250;2022-10-17T23:19:43;13.30;;;9.97;;
5454;SDS011;2750;49.050;9.250;2022-10-17T23:24:46;11.67;;;9.33;;
5454;SDS011;2750;49.050;9.250;2022-10-17T23:29:47;20.47;;;10.53;;
5454;SDS011;2750;49.050;9.250;2022-10-17T23:34:49;13.13;;;8.93;;
5454;SDS011;2750;49.050;9.250;2022-10-17T23:39:51;17.17;;;10.20;;
5454;SDS011;2750;49.050;9.250;2022-10-17T23:44:53;21.20;;;10.97;;
5454;SDS011;2750;49.050;9.250;2022-10-17T23:49:55;23.23;;;11.20;;
5454;SDS011;2750;49.050;9.250;2022-10-17T23:54:58;19.47;;;10.83;;
